Pearl Of Scandinavia — OWFU2 — position and weather

sailwx.info

Track history (hours):
 
Tides and Currents Weather Stations Pressure Air Temp Water Temp Dewpoint Dewpoint Depression Visibility Wind Speed Wind Dir Waves Ship Positions

Pearl Of Scandinavia

Last reported at 2015-Apr-21 14:33 UTC. Time now 2015-Apr-21 14:42 UTC.
Position N 55°42' E 012°37'.

Length 176.4 m; beam 34 m; draft 6.215 m.

Type: Ship. MMSI: 219945000.

Date/timePositionNaut miles runAvg speedWind from/ knotsBaromVisibWave heightAir tempDewpointWater temp
2015-Apr-21 14:33N 55°42' E 012°37'1 0.6
2015-Apr-21 13:34N 55°42' E 012°36'0 0.0
2015-Apr-21 12:34N 55°42' E 012°36'0 0.0
2015-Apr-21 11:34N 55°42' E 012°36'0 0.0
2015-Apr-21 10:28N 55°42' E 012°36'0 0.0
2015-Apr-21 09:34N 55°42' E 012°36'0 0.0
2015-Apr-21 08:31N 55°42' E 012°36'0 0.3
2015-Apr-21 07:34N 55°42' E 012°36'1110.6
2015-Apr-21 06:33N 55°53' E 012°40'1413.5
2015-Apr-21 05:33N 56°06' E 012°34'1414.4
2015-Apr-21 04:33N 56°19' E 012°23'1716.0
2015-Apr-21 03:30N 56°35' E 012°16'1515.4
2015-Apr-21 02:33N 56°49' E 012°11'1615.6
2015-Apr-21 01:33N 57°04' E 012°00'1615.7
2015-Apr-21 00:33N 57°18' E 011°47'1616.2
2015-Apr-20 23:33N 57°31' E 011°30'1716.6
2015-Apr-20 22:33N 57°47' E 011°18'1717.2
2015-Apr-20 21:33N 58°03' E 011°09'1616.5
2015-Apr-20 20:33N 58°19' E 011°00'1716.9
2015-Apr-20 19:33N 58°35' E 010°51'1717.3
2015-Apr-20 18:33N 58°52' E 010°43'1717.4
2015-Apr-20 17:33N 59°09' E 010°39'1717.0
2015-Apr-20 16:33N 59°26' E 010°33'1615.4
2015-Apr-20 15:33N 59°41' E 010°36'12 1.5
2015-Apr-20 07:21N 59°53' E 010°41'1313.8
2015-Apr-20 06:25N 59°41' E 010°37'1314.8
2015-Apr-20 05:34N 59°28' E 010°34'1616.2
2015-Apr-20 04:33N 59°12' E 010°38'1615.6
2015-Apr-20 03:33N 58°56' E 010°42'1616.0
2015-Apr-20 02:33N 58°41' E 010°46'1615.6
2015-Apr-20 01:34N 58°26' E 010°55'1615.7
2015-Apr-20 00:33N 58°11' E 011°04'1515.5
2015-Apr-19 23:34N 57°56' E 011°13'1616.0
2015-Apr-19 22:33N 57°41' E 011°22'1616.2
2015-Apr-19 21:33N 57°25' E 011°32'1616.0
2015-Apr-19 20:33N 57°10' E 011°40'1615.7
2015-Apr-19 19:34N 56°55' E 011°49'1616.0
2015-Apr-19 18:33N 56°41' E 012°04'1615.9
2015-Apr-19 17:33N 56°27' E 012°17'1616.0
2015-Apr-19 16:34N 56°13' E 012°28'1717.2
2015-Apr-19 15:33N 55°57' E 012°42'1514.6
2015-Apr-19 14:33N 55°43' E 012°38'1 1.2
2015-Apr-19 13:31N 55°42' E 012°36'0 0.0
2015-Apr-19 12:31N 55°42' E 012°36'0 0.0
2015-Apr-19 11:31N 55°42' E 012°36'0 0.0
2015-Apr-19 10:31N 55°42' E 012°36'0 0.0
2015-Apr-19 09:31N 55°42' E 012°36'0 0.0
2015-Apr-19 08:31N 55°42' E 012°36'0 0.3
2015-Apr-19 07:32N 55°42' E 012°36'1110.9
2015-Apr-19 06:33N 55°53' E 012°40'1313.2
2015-Apr-19 05:33N 56°05' E 012°34'1514.6
2015-Apr-19 04:33N 56°19' E 012°23'1615.6
2015-Apr-19 03:32N 56°34' E 012°17'1616.0
2015-Apr-19 02:33N 56°49' E 012°11'1615.7
2015-Apr-19 01:33N 57°04' E 011°59'1515.3
2015-Apr-19 00:33N 57°18' E 011°47'1615.5
2015-Apr-18 23:33N 57°31' E 011°32'1616.5
2015-Apr-18 22:33N 57°46' E 011°19'1716.9
2015-Apr-18 21:33N 58°02' E 011°10'1716.6
2015-Apr-18 20:33N 58°18' E 011°01'1716.8
2015-Apr-18 19:33N 58°34' E 010°52'1717.2
2015-Apr-18 18:33N 58°51' E 010°44'1717.5
2015-Apr-18 17:33N 59°08' E 010°39'1817.8
2015-Apr-18 16:34N 59°26' E 010°33'28 3.1
2015-Apr-18 07:22N 59°54' E 010°41'2514.0
2015-Apr-18 05:33N 59°28' E 010°34'1515.4
2015-Apr-18 04:33N 59°13' E 010°38'1615.6
2015-Apr-18 03:33N 58°58' E 010°42'1515.6
2015-Apr-18 02:33N 58°42' E 010°45'1615.6
2015-Apr-18 01:34N 58°27' E 010°54'1615.5
2015-Apr-18 00:33N 58°12' E 011°03'1616.4
2015-Apr-17 23:33N 57°57' E 011°12'1616.2
2015-Apr-17 22:33N 57°41' E 011°22'1717.0
2015-Apr-17 21:34N 57°25' E 011°31'1717.1
2015-Apr-17 20:33N 57°09' E 011°41'1716.8
2015-Apr-17 19:33N 56°53' E 011°51'1716.7
2015-Apr-17 18:33N 56°39' E 012°07'1716.5
2015-Apr-17 17:33N 56°24' E 012°18'1716.9
2015-Apr-17 16:34N 56°08' E 012°31'1616.3
2015-Apr-17 15:33N 55°54' E 012°44'1312.6
2015-Apr-17 14:33N 55°42' E 012°36'0 0.0
2015-Apr-17 13:32N 55°42' E 012°36'0 0.0
2015-Apr-17 12:29N 55°42' E 012°36'0 0.0
2015-Apr-17 11:29N 55°42' E 012°36'0 0.0
2015-Apr-17 10:32N 55°42' E 012°36'0 0.0
2015-Apr-17 09:32N 55°42' E 012°36'0 0.0
2015-Apr-17 08:32N 55°42' E 012°36'0 0.2
2015-Apr-17 07:33N 55°42' E 012°36'1111.0
2015-Apr-17 06:34N 55°53' E 012°40'1413.9
2015-Apr-17 05:33N 56°06' E 012°33'1515.2
2015-Apr-17 04:33N 56°20' E 012°22'5615.9
2015-Apr-17 01:04N 57°14' E 011°52'816.0
2015-Apr-17 00:33N 57°20' E 011°44'1616.1
2015-Apr-16 23:33N 57°34' E 011°29'1717.1
2015-Apr-16 22:33N 57°50' E 011°16'1616.0
2015-Apr-16 21:33N 58°05' E 011°07'1615.9
2015-Apr-16 20:33N 58°20' E 010°59'1616.3
2015-Apr-16 19:33N 58°36' E 010°51'1816.5
2015-Apr-16 18:28N 58°54' E 010°44'1516.6
2015-Apr-16 17:32N 59°09' E 010°39'1717.5
2015-Apr-16 16:33N 59°26' E 010°33'28 3.0
2015-Apr-16 07:20N 59°54' E 010°41'2614.7
2015-Apr-16 05:33N 59°28' E 010°34'1716.9
2015-Apr-16 04:33N 59°11' E 010°40'1717.5
2015-Apr-16 03:34N 58°53' E 010°43'1917.8
2015-Apr-16 02:31N 58°35' E 010°49'1717.9
2015-Apr-16 01:33N 58°19' E 010°59'1717.3
2015-Apr-16 00:34N 58°02' E 011°09'1716.6
2015-Apr-15 23:34N 57°46' E 011°19'1616.0
2015-Apr-15 22:33N 57°31' E 011°28'1616.4
2015-Apr-15 21:33N 57°15' E 011°37'1615.9
2015-Apr-15 20:34N 57°00' E 011°46'1514.7
2015-Apr-15 19:34N 56°46' E 011°54'1514.7
2015-Apr-15 18:34N 56°32' E 012°01'1514.8
2015-Apr-15 17:34N 56°20' E 012°16'1615.8
2015-Apr-15 16:34N 56°07' E 012°33'1615.7
2015-Apr-15 15:34N 55°53' E 012°44'1211.7
2015-Apr-15 14:33N 55°42' E 012°36'0 0.0
2015-Apr-15 13:33N 55°42' E 012°36'0 0.0
2015-Apr-15 12:27N 55°42' E 012°36'0 0.0
2015-Apr-15 11:33N 55°42' E 012°36'0 0.0
2015-Apr-15 10:33N 55°42' E 012°36'0 0.0
2015-Apr-15 09:33N 55°42' E 012°36'0 0.0
2015-Apr-15 08:33N 55°42' E 012°36'0 0.4
2015-Apr-15 07:34N 55°42' E 012°36'1212.0
2015-Apr-15 06:34N 55°54' E 012°39'1414.4
2015-Apr-15 05:33N 56°08' E 012°30'1515.4
2015-Apr-15 04:33N 56°22' E 012°21'1716.2
2015-Apr-15 03:32N 56°39' E 012°15'1616.3
2015-Apr-15 02:33N 56°54' E 012°08'1716.7
2015-Apr-15 01:33N 57°10' E 011°56'1717.1
2015-Apr-15 00:33N 57°24' E 011°39'1716.9
2015-Apr-14 23:33N 57°39' E 011°27'1717.1
2015-Apr-14 22:33N 57°56' E 011°16'1616.0
2015-Apr-14 21:34N 58°11' E 011°06'1615.6
2015-Apr-14 20:33N 58°25' E 010°57'1615.9
2015-Apr-14 19:33N 58°41' E 010°48'1616.1
2015-Apr-14 18:34N 58°57' E 010°43'1716.8
2015-Apr-14 17:33N 59°13' E 010°37'1616.4
2015-Apr-14 16:34N 59°29' E 010°34'24 2.6
2015-Apr-14 07:20N 59°53' E 010°41'2514.0
2015-Apr-14 05:33N 59°29' E 010°34'1615.5
2015-Apr-14 04:33N 59°13' E 010°38'1615.6
2015-Apr-14 03:33N 58°58' E 010°42'2315.7
2015-Apr-14 02:06N 58°35' E 010°49'916.9
2015-Apr-14 01:33N 58°26' E 010°54'1818.0
2015-Apr-14 00:34N 58°09' E 011°05'1818.0
2015-Apr-13 23:34N 57°52' E 011°15'1717.2
2015-Apr-13 22:33N 57°36' E 011°25'1716.9
2015-Apr-13 21:34N 57°20' E 011°35'1716.9
2015-Apr-13 20:32N 57°03' E 011°44'1616.3
2015-Apr-13 19:33N 56°48' E 011°55'1615.9
2015-Apr-13 18:33N 56°33' E 012°01'1616.1
2015-Apr-13 17:34N 56°19' E 012°17'1616.0
2015-Apr-13 16:34N 56°06' E 012°34'1312.9
2015-Apr-13 15:34N 55°55' E 012°44'1313.0
2015-Apr-13 14:34N 55°43' E 012°37'1 0.6
2015-Apr-13 13:31N 55°42' E 012°36'0 0.0
2015-Apr-13 12:31N 55°42' E 012°36'0 0.0
2015-Apr-13 11:34N 55°42' E 012°36'0 0.0
2015-Apr-13 10:31N 55°42' E 012°36'0 0.0
2015-Apr-13 09:31N 55°42' E 012°36'0 0.0
2015-Apr-13 08:31N 55°42' E 012°36'0 0.2
2015-Apr-13 07:32N 55°42' E 012°36'1212.4
2015-Apr-13 06:33N 55°54' E 012°39'1514.7
2015-Apr-13 05:33N 56°08' E 012°30'1616.3
2015-Apr-13 04:33N 56°23' E 012°21'1616.5
2015-Apr-13 03:33N 56°39' E 012°14'1616.5
2015-Apr-13 02:33N 56°55' E 012°07'1716.6
2015-Apr-13 01:33N 57°11' E 011°55'1717.1
2015-Apr-13 00:33N 57°25' E 011°38'1717.2
2015-Apr-12 23:33N 57°41' E 011°24'1716.7
2015-Apr-12 22:33N 57°56' E 011°13'1515.2
2015-Apr-12 21:33N 58°11' E 011°04'1515.5
2015-Apr-12 20:33N 58°25' E 010°55'1615.5
2015-Apr-12 19:33N 58°41' E 010°48'3115.4
2015-Apr-12 17:33N 59°11' E 010°38'1615.7
2015-Apr-12 16:33N 59°26' E 010°33'2015.0
2015-Apr-12 15:13N 59°47' E 010°33'913.1
2015-Apr-12 14:30N 59°54' E 010°45'2 0.2
2015-Apr-12 07:21N 59°54' E 010°41'2513.8
2015-Apr-12 05:33N 59°29' E 010°35'1515.2
2015-Apr-12 04:33N 59°14' E 010°38'1615.7
2015-Apr-12 03:33N 58°58' E 010°41'2015.4
2015-Apr-12 02:14N 58°38' E 010°44'1116.1
2015-Apr-12 01:33N 58°27' E 010°46'1615.9
2015-Apr-12 00:34N 58°11' E 010°49'1616.1
2015-Apr-11 23:33N 57°55' E 010°52'1514.9
2015-Apr-11 22:33N 57°41' E 011°02'1616.2
2015-Apr-11 21:33N 57°30' E 011°24'1717.2
2015-Apr-11 20:33N 57°14' E 011°37'1716.8
2015-Apr-11 19:33N 56°58' E 011°46'1717.2
2015-Apr-11 18:33N 56°42' E 011°57'1717.0
2015-Apr-11 17:33N 56°26' E 012°07'1817.5
2015-Apr-11 16:33N 56°12' E 012°26'1817.6
2015-Apr-11 15:33N 55°57' E 012°43'  
Track history (hours):
 
Tides and Currents Weather Stations Pressure Air Temp Water Temp Dewpoint Dewpoint Depression Visibility Wind Speed Wind Dir Waves Ship Positions

Pearl Of Scandinavia

Last reported at 2015-Apr-21 14:33 UTC. Time now 2015-Apr-21 14:42 UTC.
Position N 55°42' E 012°37'.

Length 176.4 m; beam 34 m; draft 6.215 m.

Type: Ship. MMSI: 219945000.

Date/timePositionNaut miles runAvg speedWind from/ knotsBaromVisibWave heightAir tempDewpointWater temp
2015-Apr-21 14:33N 55°42' E 012°37'1 0.6
2015-Apr-21 13:34N 55°42' E 012°36'0 0.0
2015-Apr-21 12:34N 55°42' E 012°36'0 0.0
2015-Apr-21 11:34N 55°42' E 012°36'0 0.0
2015-Apr-21 10:28N 55°42' E 012°36'0 0.0
2015-Apr-21 09:34N 55°42' E 012°36'0 0.0
2015-Apr-21 08:31N 55°42' E 012°36'0 0.3
2015-Apr-21 07:34N 55°42' E 012°36'1110.6
2015-Apr-21 06:33N 55°53' E 012°40'1413.5
2015-Apr-21 05:33N 56°06' E 012°34'1414.4
2015-Apr-21 04:33N 56°19' E 012°23'1716.0
2015-Apr-21 03:30N 56°35' E 012°16'1515.4
2015-Apr-21 02:33N 56°49' E 012°11'1615.6
2015-Apr-21 01:33N 57°04' E 012°00'1615.7
2015-Apr-21 00:33N 57°18' E 011°47'1616.2
2015-Apr-20 23:33N 57°31' E 011°30'1716.6
2015-Apr-20 22:33N 57°47' E 011°18'1717.2
2015-Apr-20 21:33N 58°03' E 011°09'1616.5
2015-Apr-20 20:33N 58°19' E 011°00'1716.9
2015-Apr-20 19:33N 58°35' E 010°51'1717.3
2015-Apr-20 18:33N 58°52' E 010°43'1717.4
2015-Apr-20 17:33N 59°09' E 010°39'1717.0
2015-Apr-20 16:33N 59°26' E 010°33'1615.4
2015-Apr-20 15:33N 59°41' E 010°36'12 1.5
2015-Apr-20 07:21N 59°53' E 010°41'1313.8
2015-Apr-20 06:25N 59°41' E 010°37'1314.8
2015-Apr-20 05:34N 59°28' E 010°34'1616.2
2015-Apr-20 04:33N 59°12' E 010°38'1615.6
2015-Apr-20 03:33N 58°56' E 010°42'1616.0
2015-Apr-20 02:33N 58°41' E 010°46'1615.6
2015-Apr-20 01:34N 58°26' E 010°55'1615.7
2015-Apr-20 00:33N 58°11' E 011°04'1515.5
2015-Apr-19 23:34N 57°56' E 011°13'1616.0
2015-Apr-19 22:33N 57°41' E 011°22'1616.2
2015-Apr-19 21:33N 57°25' E 011°32'1616.0
2015-Apr-19 20:33N 57°10' E 011°40'1615.7
2015-Apr-19 19:34N 56°55' E 011°49'1616.0
2015-Apr-19 18:33N 56°41' E 012°04'1615.9
2015-Apr-19 17:33N 56°27' E 012°17'1616.0
2015-Apr-19 16:34N 56°13' E 012°28'1717.2
2015-Apr-19 15:33N 55°57' E 012°42'1514.6
2015-Apr-19 14:33N 55°43' E 012°38'1 1.2
2015-Apr-19 13:31N 55°42' E 012°36'0 0.0
2015-Apr-19 12:31N 55°42' E 012°36'0 0.0
2015-Apr-19 11:31N 55°42' E 012°36'0 0.0
2015-Apr-19 10:31N 55°42' E 012°36'0 0.0
2015-Apr-19 09:31N 55°42' E 012°36'0 0.0
2015-Apr-19 08:31N 55°42' E 012°36'0 0.3
2015-Apr-19 07:32N 55°42' E 012°36'1110.9
2015-Apr-19 06:33N 55°53' E 012°40'1313.2
2015-Apr-19 05:33N 56°05' E 012°34'1514.6
2015-Apr-19 04:33N 56°19' E 012°23'1615.6
2015-Apr-19 03:32N 56°34' E 012°17'1616.0
2015-Apr-19 02:33N 56°49' E 012°11'1615.7
2015-Apr-19 01:33N 57°04' E 011°59'1515.3
2015-Apr-19 00:33N 57°18' E 011°47'1615.5
2015-Apr-18 23:33N 57°31' E 011°32'1616.5
2015-Apr-18 22:33N 57°46' E 011°19'1716.9
2015-Apr-18 21:33N 58°02' E 011°10'1716.6
2015-Apr-18 20:33N 58°18' E 011°01'1716.8
2015-Apr-18 19:33N 58°34' E 010°52'1717.2
2015-Apr-18 18:33N 58°51' E 010°44'1717.5
2015-Apr-18 17:33N 59°08' E 010°39'1817.8
2015-Apr-18 16:34N 59°26' E 010°33'28 3.1
2015-Apr-18 07:22N 59°54' E 010°41'2514.0
2015-Apr-18 05:33N 59°28' E 010°34'1515.4
2015-Apr-18 04:33N 59°13' E 010°38'1615.6
2015-Apr-18 03:33N 58°58' E 010°42'1515.6
2015-Apr-18 02:33N 58°42' E 010°45'1615.6
2015-Apr-18 01:34N 58°27' E 010°54'1615.5
2015-Apr-18 00:33N 58°12' E 011°03'1616.4
2015-Apr-17 23:33N 57°57' E 011°12'1616.2
2015-Apr-17 22:33N 57°41' E 011°22'1717.0
2015-Apr-17 21:34N 57°25' E 011°31'1717.1
2015-Apr-17 20:33N 57°09' E 011°41'1716.8
2015-Apr-17 19:33N 56°53' E 011°51'1716.7
2015-Apr-17 18:33N 56°39' E 012°07'1716.5
2015-Apr-17 17:33N 56°24' E 012°18'1716.9
2015-Apr-17 16:34N 56°08' E 012°31'1616.3
2015-Apr-17 15:33N 55°54' E 012°44'1312.6
2015-Apr-17 14:33N 55°42' E 012°36'0 0.0
2015-Apr-17 13:32N 55°42' E 012°36'0 0.0
2015-Apr-17 12:29N 55°42' E 012°36'0 0.0
2015-Apr-17 11:29N 55°42' E 012°36'0 0.0
2015-Apr-17 10:32N 55°42' E 012°36'0 0.0
2015-Apr-17 09:32N 55°42' E 012°36'0 0.0
2015-Apr-17 08:32N 55°42' E 012°36'0 0.2
2015-Apr-17 07:33N 55°42' E 012°36'1111.0
2015-Apr-17 06:34N 55°53' E 012°40'1413.9
2015-Apr-17 05:33N 56°06' E 012°33'1515.2
2015-Apr-17 04:33N 56°20' E 012°22'5615.9
2015-Apr-17 01:04N 57°14' E 011°52'816.0
2015-Apr-17 00:33N 57°20' E 011°44'1616.1
2015-Apr-16 23:33N 57°34' E 011°29'1717.1
2015-Apr-16 22:33N 57°50' E 011°16'1616.0
2015-Apr-16 21:33N 58°05' E 011°07'1615.9
2015-Apr-16 20:33N 58°20' E 010°59'1616.3
2015-Apr-16 19:33N 58°36' E 010°51'1816.5
2015-Apr-16 18:28N 58°54' E 010°44'1516.6
2015-Apr-16 17:32N 59°09' E 010°39'1717.5
2015-Apr-16 16:33N 59°26' E 010°33'28 3.0
2015-Apr-16 07:20N 59°54' E 010°41'2614.7
2015-Apr-16 05:33N 59°28' E 010°34'1716.9
2015-Apr-16 04:33N 59°11' E 010°40'1717.5
2015-Apr-16 03:34N 58°53' E 010°43'1917.8
2015-Apr-16 02:31N 58°35' E 010°49'1717.9
2015-Apr-16 01:33N 58°19' E 010°59'1717.3
2015-Apr-16 00:34N 58°02' E 011°09'1716.6
2015-Apr-15 23:34N 57°46' E 011°19'1616.0
2015-Apr-15 22:33N 57°31' E 011°28'1616.4
2015-Apr-15 21:33N 57°15' E 011°37'1615.9
2015-Apr-15 20:34N 57°00' E 011°46'1514.7
2015-Apr-15 19:34N 56°46' E 011°54'1514.7
2015-Apr-15 18:34N 56°32' E 012°01'1514.8
2015-Apr-15 17:34N 56°20' E 012°16'1615.8
2015-Apr-15 16:34N 56°07' E 012°33'1615.7
2015-Apr-15 15:34N 55°53' E 012°44'1211.7
2015-Apr-15 14:33N 55°42' E 012°36'0 0.0
2015-Apr-15 13:33N 55°42' E 012°36'0 0.0
2015-Apr-15 12:27N 55°42' E 012°36'0 0.0
2015-Apr-15 11:33N 55°42' E 012°36'0 0.0
2015-Apr-15 10:33N 55°42' E 012°36'0 0.0
2015-Apr-15 09:33N 55°42' E 012°36'0 0.0
2015-Apr-15 08:33N 55°42' E 012°36'0 0.4
2015-Apr-15 07:34N 55°42' E 012°36'1212.0
2015-Apr-15 06:34N 55°54' E 012°39'1414.4
2015-Apr-15 05:33N 56°08' E 012°30'1515.4
2015-Apr-15 04:33N 56°22' E 012°21'1716.2
2015-Apr-15 03:32N 56°39' E 012°15'1616.3
2015-Apr-15 02:33N 56°54' E 012°08'1716.7
2015-Apr-15 01:33N 57°10' E 011°56'1717.1
2015-Apr-15 00:33N 57°24' E 011°39'1716.9
2015-Apr-14 23:33N 57°39' E 011°27'1717.1
2015-Apr-14 22:33N 57°56' E 011°16'1616.0
2015-Apr-14 21:34N 58°11' E 011°06'1615.6
2015-Apr-14 20:33N 58°25' E 010°57'1615.9
2015-Apr-14 19:33N 58°41' E 010°48'1616.1
2015-Apr-14 18:34N 58°57' E 010°43'1716.8
2015-Apr-14 17:33N 59°13' E 010°37'1616.4
2015-Apr-14 16:34N 59°29' E 010°34'24 2.6
2015-Apr-14 07:20N 59°53' E 010°41'2514.0
2015-Apr-14 05:33N 59°29' E 010°34'1615.5
2015-Apr-14 04:33N 59°13' E 010°38'1615.6
2015-Apr-14 03:33N 58°58' E 010°42'2315.7
2015-Apr-14 02:06N 58°35' E 010°49'916.9
2015-Apr-14 01:33N 58°26' E 010°54'1818.0
2015-Apr-14 00:34N 58°09' E 011°05'1818.0
2015-Apr-13 23:34N 57°52' E 011°15'1717.2
2015-Apr-13 22:33N 57°36' E 011°25'1716.9
2015-Apr-13 21:34N 57°20' E 011°35'1716.9
2015-Apr-13 20:32N 57°03' E 011°44'1616.3
2015-Apr-13 19:33N 56°48' E 011°55'1615.9
2015-Apr-13 18:33N 56°33' E 012°01'1616.1
2015-Apr-13 17:34N 56°19' E 012°17'1616.0
2015-Apr-13 16:34N 56°06' E 012°34'1312.9
2015-Apr-13 15:34N 55°55' E 012°44'1313.0
2015-Apr-13 14:34N 55°43' E 012°37'1 0.6
2015-Apr-13 13:31N 55°42' E 012°36'0 0.0
2015-Apr-13 12:31N 55°42' E 012°36'0 0.0
2015-Apr-13 11:34N 55°42' E 012°36'0 0.0
2015-Apr-13 10:31N 55°42' E 012°36'0 0.0
2015-Apr-13 09:31N 55°42' E 012°36'0 0.0
2015-Apr-13 08:31N 55°42' E 012°36'0 0.2
2015-Apr-13 07:32N 55°42' E 012°36'1212.4
2015-Apr-13 06:33N 55°54' E 012°39'1514.7
2015-Apr-13 05:33N 56°08' E 012°30'1616.3
2015-Apr-13 04:33N 56°23' E 012°21'1616.5
2015-Apr-13 03:33N 56°39' E 012°14'1616.5
2015-Apr-13 02:33N 56°55' E 012°07'1716.6
2015-Apr-13 01:33N 57°11' E 011°55'1717.1
2015-Apr-13 00:33N 57°25' E 011°38'1717.2
2015-Apr-12 23:33N 57°41' E 011°24'1716.7
2015-Apr-12 22:33N 57°56' E 011°13'1515.2
2015-Apr-12 21:33N 58°11' E 011°04'1515.5
2015-Apr-12 20:33N 58°25' E 010°55'1615.5
2015-Apr-12 19:33N 58°41' E 010°48'3115.4
2015-Apr-12 17:33N 59°11' E 010°38'1615.7
2015-Apr-12 16:33N 59°26' E 010°33'2015.0
2015-Apr-12 15:13N 59°47' E 010°33'913.1
2015-Apr-12 14:30N 59°54' E 010°45'2 0.2
2015-Apr-12 07:21N 59°54' E 010°41'2513.8
2015-Apr-12 05:33N 59°29' E 010°35'1515.2
2015-Apr-12 04:33N 59°14' E 010°38'1615.7
2015-Apr-12 03:33N 58°58' E 010°41'2015.4
2015-Apr-12 02:14N 58°38' E 010°44'1116.1
2015-Apr-12 01:33N 58°27' E 010°46'1615.9
2015-Apr-12 00:34N 58°11' E 010°49'1616.1
2015-Apr-11 23:33N 57°55' E 010°52'1514.9
2015-Apr-11 22:33N 57°41' E 011°02'1616.2
2015-Apr-11 21:33N 57°30' E 011°24'1717.2
2015-Apr-11 20:33N 57°14' E 011°37'1716.8
2015-Apr-11 19:33N 56°58' E 011°46'1717.2
2015-Apr-11 18:33N 56°42' E 011°57'1717.0
2015-Apr-11 17:33N 56°26' E 012°07'1817.5
2015-Apr-11 16:33N 56°12' E 012°26'1817.6
2015-Apr-11 15:33N 55°57' E 012°43'  

Dump ship's entire track history